createdAt,value
2022-12-13T00:01:25.643Z,33.67
2022-12-13T00:03:57.907Z,24.67
2022-12-13T00:06:25.486Z,25.15
2022-12-13T00:08:53.507Z,23.17
2022-12-13T00:11:20.752Z,26.83
2022-12-13T00:13:48.155Z,28.38
2022-12-13T00:16:22.764Z,27.35
2022-12-13T00:18:51.574Z,28.33
2022-12-13T00:21:20.307Z,28.15
2022-12-13T00:23:47.876Z,30.15
2022-12-13T00:26:18.035Z,27.83
2022-12-13T00:28:46.226Z,27.92
2022-12-13T00:31:52.979Z,24.20
2022-12-13T00:34:00.650Z,23.25
2022-12-13T00:39:01.714Z,24.10
2022-12-13T00:41:34.471Z,26.02
2022-12-13T00:44:02.702Z,23.00
2022-12-13T00:46:30.856Z,26.48
2022-12-13T00:49:00.627Z,29.25
2022-12-13T00:51:29.671Z,25.33
2022-12-13T00:53:56.457Z,24.25
2022-12-13T00:56:26.674Z,25.70
2022-12-13T00:58:55.227Z,27.23
2022-12-13T01:01:25.274Z,30.65
2022-12-13T01:03:54.825Z,30.50
2022-12-13T01:06:35.349Z,26.98
2022-12-13T01:09:03.381Z,26.17
2022-12-13T01:11:30.226Z,27.02
2022-12-13T01:13:57.052Z,27.05
2022-12-13T01:16:23.913Z,25.85
2022-12-13T01:18:50.980Z,23.23
2022-12-13T01:21:20.882Z,20.55
2022-12-13T01:23:49.460Z,25.45
2022-12-13T01:26:19.698Z,26.70
2022-12-13T01:28:47.024Z,23.60
2022-12-13T01:31:16.959Z,25.45
2022-12-13T01:33:44.000Z,28.08
2022-12-13T01:36:17.212Z,29.50
2022-12-13T01:38:44.603Z,22.30
2022-12-13T01:41:19.210Z,24.25
2022-12-13T01:43:53.167Z,23.35
2022-12-13T01:46:21.967Z,24.67
2022-12-13T01:48:51.701Z,25.10
2022-12-13T01:51:21.524Z,24.92
2022-12-13T01:53:49.945Z,23.45
2022-12-13T01:56:21.552Z,21.00
2022-12-13T01:58:50.391Z,24.70
2022-12-13T02:01:18.351Z,27.08
2022-12-13T02:03:46.243Z,22.35
2022-12-13T02:06:19.219Z,27.02
2022-12-13T02:08:46.925Z,23.60
2022-12-13T02:11:14.666Z,24.10
2022-12-13T02:13:41.732Z,24.92
2022-12-13T02:16:22.869Z,22.13
2022-12-13T02:19:19.782Z,24.65
2022-12-13T02:22:02.037Z,23.67
2022-12-13T02:24:40.778Z,23.98
2022-12-13T02:27:31.492Z,22.60
2022-12-13T02:30:22.419Z,22.02
2022-12-13T02:33:26.690Z,24.35
2022-12-13T02:36:24.086Z,23.40
2022-12-13T02:38:59.577Z,19.10
2022-12-13T02:41:39.182Z,24.60
2022-12-13T02:44:38.140Z,23.38
2022-12-13T02:47:12.381Z,25.20
2022-12-13T02:49:43.975Z,21.92
2022-12-13T02:52:13.600Z,22.27
2022-12-13T02:54:49.653Z,24.00
2022-12-13T02:57:34.649Z,22.38
2022-12-13T03:00:05.801Z,24.05
2022-12-13T03:02:44.286Z,22.67
2022-12-13T03:05:53.264Z,24.70
2022-12-13T03:08:46.692Z,20.77
2022-12-13T03:11:17.375Z,20.80
2022-12-13T03:13:57.681Z,19.42
2022-12-13T03:16:44.429Z,26.13
2022-12-13T03:19:13.072Z,19.80
2022-12-13T03:21:48.221Z,20.63
2022-12-13T03:24:20.327Z,25.60
2022-12-13T03:26:49.083Z,20.50
2022-12-13T03:29:23.443Z,19.92
2022-12-13T03:31:51.746Z,24.08
2022-12-13T03:34:22.216Z,18.48
2022-12-13T03:36:50.334Z,24.02
2022-12-13T03:39:17.302Z,21.83
2022-12-13T03:41:44.154Z,24.48
2022-12-13T03:44:11.001Z,20.35
2022-12-13T03:46:37.911Z,22.38
2022-12-13T03:49:04.896Z,23.15
2022-12-13T03:51:31.690Z,21.15
2022-12-13T03:53:58.563Z,23.75
2022-12-13T03:56:26.310Z,20.45
2022-12-13T03:58:53.287Z,22.48
2022-12-13T04:01:20.481Z,23.10
2022-12-13T04:03:47.689Z,22.98
2022-12-13T04:06:21.968Z,20.90
2022-12-13T04:08:51.678Z,22.95
2022-12-13T04:11:48.174Z,20.83
2022-12-13T04:14:22.627Z,23.63
2022-12-13T04:16:53.172Z,21.38
2022-12-13T04:19:23.702Z,20.27
2022-12-13T04:21:54.757Z,20.88
2022-12-13T04:24:31.741Z,21.45
2022-12-13T04:27:00.739Z,24.00
2022-12-13T04:29:27.977Z,22.45
2022-12-13T04:32:02.035Z,21.95
2022-12-13T04:34:34.947Z,25.35
2022-12-13T04:37:04.023Z,21.27
2022-12-13T04:39:34.167Z,25.73
2022-12-13T04:42:01.440Z,25.75
2022-12-13T04:44:32.627Z,22.35
2022-12-13T04:47:03.257Z,20.00
2022-12-13T04:49:30.878Z,22.63
2022-12-13T04:52:01.255Z,22.70
2022-12-13T04:54:35.616Z,22.10
2022-12-13T04:57:05.183Z,24.25
2022-12-13T04:59:31.989Z,23.13
2022-12-13T05:01:58.808Z,21.25
2022-12-13T05:04:32.091Z,22.98
2022-12-13T05:06:59.733Z,21.48
2022-12-13T05:09:26.696Z,20.77
2022-12-13T05:11:53.524Z,21.23
2022-12-13T05:14:32.439Z,20.67
2022-12-13T05:17:00.650Z,22.20
2022-12-13T05:19:31.240Z,21.10
2022-12-13T05:22:01.380Z,21.05
2022-12-13T05:24:29.691Z,20.85
2022-12-13T05:26:57.149Z,21.25
2022-12-13T05:29:23.965Z,24.83
2022-12-13T05:31:51.118Z,25.05
2022-12-13T05:34:18.055Z,20.95
2022-12-13T05:36:44.852Z,20.77
2022-12-13T05:39:29.125Z,24.25
2022-12-13T05:42:01.838Z,19.35
2022-12-13T05:44:30.711Z,21.73
2022-12-13T05:46:57.475Z,22.20
2022-12-13T05:49:24.295Z,21.65
2022-12-13T05:51:51.225Z,21.45
2022-12-13T05:54:18.158Z,23.67
2022-12-13T05:56:44.940Z,22.35
2022-12-13T05:59:11.756Z,23.10
2022-12-13T06:01:43.769Z,25.20
2022-12-13T06:04:12.419Z,24.67
2022-12-13T06:06:51.061Z,23.35
2022-12-13T06:09:18.690Z,22.17
2022-12-13T06:11:45.669Z,22.92
2022-12-13T06:14:21.468Z,23.25
2022-12-13T06:16:48.993Z,27.15
2022-12-13T06:19:15.873Z,23.33
2022-12-13T06:21:46.221Z,25.45
2022-12-13T06:24:22.556Z,26.00
2022-12-13T06:26:50.371Z,25.70
2022-12-13T06:29:23.284Z,24.50
2022-12-13T06:32:02.444Z,21.33
2022-12-13T06:34:35.636Z,22.85
2022-12-13T06:37:07.012Z,25.83
2022-12-13T06:39:34.591Z,25.40
2022-12-13T06:42:06.524Z,24.13
2022-12-13T06:44:34.271Z,26.15
2022-12-13T06:47:11.164Z,29.13
2022-12-13T06:49:40.935Z,28.83
2022-12-13T06:52:13.185Z,28.00
2022-12-13T06:54:40.681Z,26.83
2022-12-13T06:57:07.659Z,27.65
2022-12-13T06:59:34.506Z,27.45
2022-12-13T07:02:03.167Z,28.92
2022-12-13T07:04:31.535Z,26.70
2022-12-13T07:07:01.363Z,24.05
2022-12-13T07:09:30.856Z,30.02
2022-12-13T07:11:58.132Z,30.88
2022-12-13T07:14:25.282Z,25.73
2022-12-13T07:16:52.123Z,29.02
2022-12-13T07:19:24.050Z,28.70
2022-12-13T07:21:51.860Z,31.25
2022-12-13T07:24:19.126Z,31.80
2022-12-13T07:26:46.869Z,27.55
2022-12-13T07:29:13.715Z,31.88
2022-12-13T07:31:49.907Z,29.45
2022-12-13T07:34:16.919Z,32.05
2022-12-13T07:36:43.676Z,30.88
2022-12-13T07:39:10.483Z,38.08
2022-12-13T07:41:37.567Z,30.52
2022-12-13T07:44:04.895Z,29.60
2022-12-13T07:46:32.914Z,34.33
2022-12-13T07:49:05.156Z,33.63
2022-12-13T07:51:34.774Z,34.50
2022-12-13T07:54:07.161Z,35.42
2022-12-13T07:56:35.027Z,32.17
2022-12-13T07:59:02.434Z,32.70
2022-12-13T08:01:31.093Z,35.25
2022-12-13T08:03:57.958Z,33.78
2022-12-13T08:06:24.749Z,30.63
2022-12-13T08:08:58.236Z,32.92
2022-12-13T08:11:25.291Z,29.92
2022-12-13T08:13:54.245Z,40.63
2022-12-13T08:16:27.337Z,37.17
2022-12-13T08:19:02.823Z,29.23
2022-12-13T08:21:58.521Z,36.38
2022-12-13T08:24:29.878Z,35.50
2022-12-13T08:27:03.027Z,31.55
2022-12-13T08:29:34.464Z,32.83
2022-12-13T08:32:07.382Z,37.00
2022-12-13T08:34:34.263Z,32.83
2022-12-13T08:37:03.232Z,33.28
2022-12-13T08:39:36.724Z,36.05
2022-12-13T08:42:15.753Z,35.80
2022-12-13T08:44:52.628Z,33.42
2022-12-13T08:47:24.519Z,32.95
2022-12-13T08:50:02.869Z,36.80
2022-12-13T08:52:31.872Z,37.80
2022-12-13T08:54:58.731Z,34.97
2022-12-13T08:57:25.643Z,32.67
2022-12-13T08:59:54.450Z,34.78
2022-12-13T09:02:21.488Z,35.58
2022-12-13T09:04:49.047Z,34.83
2022-12-13T09:07:15.801Z,33.50
2022-12-13T09:09:42.682Z,31.80
2022-12-13T09:12:10.268Z,35.85
2022-12-13T09:14:38.400Z,37.97
2022-12-13T09:17:25.003Z,34.70
2022-12-13T09:19:58.420Z,35.33
2022-12-13T09:22:33.728Z,31.50
2022-12-13T09:25:02.426Z,34.60
2022-12-13T09:27:39.647Z,43.30
2022-12-13T09:30:08.916Z,31.73
2022-12-13T09:32:35.685Z,35.22
2022-12-13T09:35:02.483Z,32.20
2022-12-13T09:37:30.256Z,35.83
2022-12-13T09:39:57.034Z,37.10
2022-12-13T09:42:30.697Z,36.20
2022-12-13T09:45:06.466Z,35.65
2022-12-13T09:47:51.535Z,32.58
2022-12-13T09:50:37.478Z,33.40
2022-12-13T09:53:12.193Z,31.15
2022-12-13T09:55:52.472Z,31.60
2022-12-13T09:58:20.594Z,31.92
2022-12-13T10:00:50.625Z,34.10
2022-12-13T10:03:20.277Z,34.80
2022-12-13T10:06:22.802Z,31.80
2022-12-13T10:08:57.415Z,29.90
2022-12-13T10:11:31.491Z,29.98
2022-12-13T10:14:05.661Z,33.75
2022-12-13T10:16:38.431Z,35.28
2022-12-13T10:19:33.000Z,36.53
2022-12-13T10:22:02.634Z,30.77
2022-12-13T10:24:48.316Z,32.45
2022-12-13T10:27:36.862Z,27.20
2022-12-13T10:30:07.534Z,29.55
2022-12-13T10:32:46.164Z,27.33
2022-12-13T10:35:30.669Z,32.65
2022-12-13T10:38:00.813Z,32.22
2022-12-13T10:40:33.299Z,31.83
2022-12-13T10:43:18.691Z,31.63
2022-12-13T10:46:00.723Z,27.83
2022-12-13T10:48:51.913Z,34.45
2022-12-13T10:51:21.122Z,32.25
2022-12-13T10:53:55.108Z,34.83
2022-12-13T10:56:32.691Z,36.55
2022-12-13T10:59:25.619Z,34.20
2022-12-13T11:01:52.890Z,31.35
2022-12-13T11:04:27.880Z,34.03
2022-12-13T11:06:57.206Z,35.53
2022-12-13T11:09:38.533Z,31.02
2022-12-13T11:12:15.333Z,30.70
2022-12-13T11:15:14.910Z,32.92
2022-12-13T11:17:51.678Z,35.05
2022-12-13T11:20:23.624Z,33.40
2022-12-13T11:22:59.102Z,36.22
2022-12-13T11:25:31.475Z,27.88
2022-12-13T11:28:27.826Z,26.35
2022-12-13T11:31:15.429Z,33.03
2022-12-13T11:34:09.353Z,28.33
2022-12-13T11:36:54.710Z,27.70
2022-12-13T11:39:39.343Z,26.30
2022-12-13T11:42:23.383Z,25.73
2022-12-13T11:45:03.301Z,31.05
2022-12-13T11:47:42.609Z,27.65
2022-12-13T11:50:33.144Z,23.20
2022-12-13T11:53:25.400Z,19.20
2022-12-13T11:55:57.016Z,25.77
2022-12-13T11:59:02.497Z,23.10
2022-12-13T12:01:46.213Z,22.52
2022-12-13T12:07:31.239Z,20.05
2022-12-13T12:09:59.962Z,21.48
2022-12-13T12:12:38.169Z,20.80
2022-12-13T12:15:26.687Z,25.30
2022-12-13T12:17:55.994Z,22.98
2022-12-13T12:20:47.036Z,23.80
2022-12-13T12:23:48.439Z,24.75
2022-12-13T12:26:21.788Z,23.67
2022-12-13T12:29:19.935Z,21.05
2022-12-13T12:32:21.066Z,23.80
2022-12-13T12:35:04.727Z,24.77
2022-12-13T12:37:59.273Z,31.52
2022-12-13T12:41:18.215Z,17.67
2022-12-13T12:43:52.207Z,20.75
2022-12-13T12:47:32.649Z,22.83
2022-12-13T12:50:18.178Z,22.05
2022-12-13T12:53:11.882Z,21.27
2022-12-13T12:56:00.637Z,22.73
2022-12-13T12:58:33.859Z,23.38
2022-12-13T13:01:21.761Z,20.33
2022-12-13T13:03:50.498Z,23.13
2022-12-13T13:06:29.119Z,19.25
2022-12-13T13:09:04.422Z,22.70
2022-12-13T13:11:43.296Z,20.02
2022-12-13T13:14:39.042Z,19.98
2022-12-13T13:17:24.001Z,20.42
2022-12-13T13:20:04.124Z,22.15
2022-12-13T13:22:42.807Z,22.67
2022-12-13T13:25:22.917Z,19.05
2022-12-13T13:27:53.408Z,22.33
2022-12-13T13:30:21.931Z,19.48
2022-12-13T13:32:51.734Z,18.63
2022-12-13T13:35:33.682Z,21.92
2022-12-13T13:38:05.993Z,22.17
2022-12-13T13:43:03.758Z,17.60
2022-12-13T13:45:31.483Z,18.45
2022-12-13T13:47:58.270Z,19.20
2022-12-13T13:53:08.438Z,20.25
2022-12-13T13:55:58.607Z,20.73
2022-12-13T13:58:52.709Z,19.17
2022-12-13T14:01:41.530Z,22.63
2022-12-13T14:04:27.337Z,18.80
2022-12-13T14:07:39.635Z,18.35
2022-12-13T14:10:27.600Z,20.02
2022-12-13T14:13:29.240Z,21.58
2022-12-13T14:16:12.277Z,19.80
2022-12-13T14:19:18.790Z,19.30
2022-12-13T14:21:51.702Z,18.33
2022-12-13T14:24:31.456Z,22.88
2022-12-13T14:27:12.778Z,23.77
2022-12-13T14:29:48.286Z,24.25
2022-12-13T14:32:37.003Z,24.17
2022-12-13T14:35:25.911Z,25.30
2022-12-13T14:37:58.237Z,24.60
2022-12-13T14:40:34.808Z,29.23
2022-12-13T14:43:02.899Z,28.73
2022-12-13T14:45:33.166Z,25.80
2022-12-13T14:48:03.397Z,21.17
2022-12-13T14:50:36.136Z,28.42
2022-12-13T14:53:03.991Z,22.75
2022-12-13T14:55:36.877Z,24.95
2022-12-13T14:58:19.489Z,21.90
2022-12-13T15:00:46.566Z,24.02
2022-12-13T15:03:23.418Z,20.67
2022-12-13T15:05:55.489Z,22.23
2022-12-13T15:08:23.086Z,22.80
2022-12-13T15:11:00.289Z,21.00
2022-12-13T15:13:42.196Z,21.10
2022-12-13T15:16:16.804Z,23.80
2022-12-13T15:18:43.664Z,17.83
2022-12-13T15:21:25.433Z,23.05
2022-12-13T15:23:53.813Z,23.23
2022-12-13T15:26:28.530Z,21.38
2022-12-13T15:28:59.947Z,20.13
2022-12-13T15:31:28.217Z,23.48
2022-12-13T15:34:01.283Z,25.08
2022-12-13T15:36:29.301Z,26.63
2022-12-13T15:38:56.129Z,23.17
2022-12-13T15:41:28.788Z,23.05
2022-12-13T15:44:00.496Z,24.17
2022-12-13T15:46:30.399Z,24.83
2022-12-13T15:48:59.929Z,23.45
2022-12-13T15:51:30.054Z,27.08
2022-12-13T15:54:04.946Z,25.92
2022-12-13T15:56:33.219Z,23.45
2022-12-13T15:59:01.319Z,24.33
2022-12-13T16:01:36.342Z,23.70
2022-12-13T16:04:05.092Z,26.38
2022-12-13T16:06:33.498Z,27.58
2022-12-13T16:09:03.414Z,24.77
2022-12-13T16:11:55.857Z,23.25
2022-12-13T16:14:31.854Z,22.27
2022-12-13T16:17:24.696Z,22.95
2022-12-13T16:19:57.311Z,24.50
2022-12-13T16:22:24.409Z,23.35
2022-12-13T16:24:52.653Z,21.80
2022-12-13T16:27:19.681Z,25.27
2022-12-13T16:29:46.516Z,24.52
2022-12-13T16:32:13.394Z,24.05
2022-12-13T16:34:40.268Z,25.38
2022-12-13T16:37:25.734Z,28.73
2022-12-13T16:39:54.214Z,25.05
2022-12-13T16:42:21.344Z,23.52
2022-12-13T16:45:17.640Z,23.42
2022-12-13T16:47:48.370Z,24.85
2022-12-13T16:50:18.295Z,28.67
2022-12-13T16:52:45.259Z,26.30
2022-12-13T16:55:12.542Z,26.80
2022-12-13T16:57:39.842Z,25.40
2022-12-13T17:00:10.776Z,22.75
2022-12-13T17:02:38.449Z,24.67
2022-12-13T17:05:06.115Z,25.63
2022-12-13T17:07:33.499Z,26.42
2022-12-13T17:10:00.306Z,25.45
2022-12-13T17:12:27.094Z,27.33
2022-12-13T17:14:54.395Z,29.40
2022-12-13T17:17:21.552Z,24.60
2022-12-13T17:19:48.392Z,28.42
2022-12-13T17:22:15.162Z,26.50
2022-12-13T17:24:41.992Z,28.92
2022-12-13T17:27:08.929Z,28.00
2022-12-13T17:29:36.191Z,26.88
2022-12-13T17:32:04.471Z,28.50
2022-12-13T17:34:31.497Z,30.00
2022-12-13T17:36:58.260Z,26.88
2022-12-13T17:39:25.717Z,33.42
2022-12-13T17:41:55.568Z,28.92
2022-12-13T17:44:26.441Z,27.67
2022-12-13T17:46:55.024Z,30.30
2022-12-13T17:49:22.618Z,26.80
2022-12-13T17:51:51.385Z,28.50
2022-12-13T17:54:18.784Z,28.33
2022-12-13T17:56:45.883Z,27.42
2022-12-13T17:59:15.221Z,26.33
2022-12-13T18:01:45.948Z,29.02
2022-12-13T18:04:13.206Z,26.13
2022-12-13T18:06:40.467Z,33.97
2022-12-13T18:09:08.604Z,33.30
2022-12-13T18:11:35.792Z,31.40
2022-12-13T18:14:04.691Z,30.13
2022-12-13T18:16:38.270Z,26.75
2022-12-13T18:19:07.956Z,28.77
2022-12-13T18:21:35.643Z,32.83
2022-12-13T18:24:02.776Z,29.27
2022-12-13T18:26:29.597Z,28.88
2022-12-13T18:28:56.486Z,26.75
2022-12-13T18:31:25.275Z,26.52
2022-12-13T18:33:54.058Z,28.63
2022-12-13T18:36:24.209Z,31.88
2022-12-13T18:38:51.622Z,32.35
2022-12-13T18:41:21.597Z,25.67
2022-12-13T18:43:53.827Z,26.27
2022-12-13T18:46:21.043Z,29.30
2022-12-13T18:48:47.911Z,27.45
2022-12-13T18:51:15.296Z,32.38
2022-12-13T18:53:42.164Z,29.13
2022-12-13T18:56:18.357Z,28.90
2022-12-13T18:58:48.117Z,27.00
2022-12-13T19:01:16.413Z,28.23
2022-12-13T19:03:47.852Z,27.85
2022-12-13T19:06:20.769Z,39.77
2022-12-13T19:08:53.324Z,34.97
2022-12-13T19:11:20.513Z,30.90
2022-12-13T19:13:47.654Z,36.90
2022-12-13T19:16:17.132Z,28.38
2022-12-13T19:18:44.216Z,29.83
2022-12-13T19:21:15.105Z,28.42
2022-12-13T19:23:42.499Z,32.72
2022-12-13T19:26:13.038Z,30.67
2022-12-13T19:28:41.522Z,27.05
2022-12-13T19:31:17.491Z,30.75
2022-12-13T19:33:44.334Z,27.42
2022-12-13T19:36:11.561Z,26.50
2022-12-13T19:38:40.043Z,27.55
2022-12-13T19:41:14.115Z,25.95
2022-12-13T19:43:41.924Z,27.80
2022-12-13T19:46:09.222Z,27.80
2022-12-13T19:48:39.830Z,24.75
2022-12-13T19:51:08.594Z,28.63
2022-12-13T19:53:36.728Z,29.02
2022-12-13T19:56:11.656Z,27.65
2022-12-13T19:58:39.461Z,24.05
2022-12-13T20:01:07.837Z,27.80
2022-12-13T20:03:36.479Z,26.67
2022-12-13T20:06:04.956Z,28.58
2022-12-13T20:08:33.002Z,22.83
2022-12-13T20:11:03.190Z,29.63
2022-12-13T20:13:30.497Z,25.60
2022-12-13T20:15:57.635Z,28.60
2022-12-13T20:18:24.969Z,24.73
2022-12-13T20:21:16.124Z,27.83
2022-12-13T20:23:48.593Z,25.50
2022-12-13T20:26:18.327Z,21.95
2022-12-13T20:28:45.292Z,25.30
2022-12-13T20:31:14.917Z,23.38
2022-12-13T20:33:45.085Z,23.75
2022-12-13T20:36:24.038Z,25.77
2022-12-13T20:38:56.242Z,23.35
2022-12-13T20:41:24.968Z,25.98
2022-12-13T20:43:53.272Z,22.92
2022-12-13T20:46:21.096Z,22.90
2022-12-13T20:48:48.788Z,23.58
2022-12-13T20:51:18.760Z,22.92
2022-12-13T20:53:48.066Z,24.75
2022-12-13T20:56:26.464Z,22.55
2022-12-13T20:58:53.945Z,21.95
2022-12-13T21:01:23.605Z,21.73
2022-12-13T21:03:53.135Z,21.42
2022-12-13T21:06:20.040Z,24.77
2022-12-13T21:08:52.707Z,20.52
2022-12-13T21:11:31.076Z,17.70
2022-12-13T21:14:01.181Z,23.17
2022-12-13T21:16:42.940Z,23.17
2022-12-13T21:19:12.975Z,31.50
2022-12-13T21:21:40.221Z,25.42
2022-12-13T21:24:07.439Z,25.48
2022-12-13T21:26:35.950Z,20.38
2022-12-13T21:29:05.562Z,19.88
2022-12-13T21:31:32.698Z,26.15
2022-12-13T21:34:00.994Z,23.90
2022-12-13T21:36:36.169Z,22.88
2022-12-13T21:39:10.384Z,22.05
2022-12-13T21:41:37.258Z,21.30
2022-12-13T21:44:04.783Z,21.48
2022-12-13T21:47:02.941Z,22.27
2022-12-13T21:49:18.863Z,22.75
2022-12-13T21:51:48.235Z,23.17
2022-12-13T21:54:15.739Z,24.88
2022-12-13T21:57:01.099Z,21.27
2022-12-13T21:59:28.898Z,17.70
2022-12-13T22:02:18.027Z,18.95
2022-12-13T22:04:52.473Z,19.20
2022-12-13T22:07:23.216Z,19.15
2022-12-13T22:09:51.315Z,18.35
2022-12-13T22:12:25.593Z,17.38
2022-12-13T22:14:53.306Z,21.67
2022-12-13T22:17:26.977Z,23.88
2022-12-13T22:19:58.106Z,19.35
2022-12-13T22:22:25.444Z,18.23
2022-12-13T22:24:53.879Z,22.02
2022-12-13T22:27:25.571Z,19.70
2022-12-13T22:29:53.900Z,19.88
2022-12-13T22:32:20.946Z,22.00
2022-12-13T22:34:48.111Z,20.45
2022-12-13T22:37:15.035Z,21.35
2022-12-13T22:39:41.886Z,21.73
2022-12-13T22:42:08.721Z,17.90
2022-12-13T22:44:35.590Z,20.50
2022-12-13T22:47:02.550Z,20.00
2022-12-13T22:49:29.356Z,19.33
2022-12-13T22:51:56.191Z,23.23
2022-12-13T22:54:23.562Z,20.08
2022-12-13T22:56:50.708Z,20.50
2022-12-13T22:59:17.619Z,21.75
2022-12-13T23:01:47.140Z,18.42
2022-12-13T23:04:14.877Z,17.45
2022-12-13T23:06:41.798Z,23.40
2022-12-13T23:09:11.658Z,19.27
2022-12-13T23:11:56.781Z,21.42
2022-12-13T23:14:32.836Z,20.10
2022-12-13T23:17:00.790Z,18.42
2022-12-13T23:19:41.572Z,21.38
2022-12-13T23:22:16.048Z,19.35
2022-12-13T23:24:42.853Z,20.13
2022-12-13T23:27:09.863Z,19.52
2022-12-13T23:29:36.814Z,20.73
2022-12-13T23:32:03.869Z,23.00
2022-12-13T23:34:30.887Z,21.10
2022-12-13T23:36:57.674Z,21.00
2022-12-13T23:39:24.485Z,22.80
2022-12-13T23:41:51.270Z,23.35
2022-12-13T23:44:18.284Z,20.60
2022-12-13T23:46:48.628Z,21.83
2022-12-13T23:49:16.436Z,23.15
2022-12-13T23:51:43.535Z,25.52
2022-12-13T23:54:14.714Z,20.50
2022-12-13T23:56:41.686Z,21.77
2022-12-13T23:59:08.718Z,22.88
